sensor_id;sensor_type;location;lat;lon;timestamp;pressure;altitude;pressure_sealevel;temperature;humidity
46714;BME280;32445;51.376;10.874;2023-10-19T00:04:02;97975.19;;;10.24;48.70
46714;BME280;32445;51.376;10.874;2023-10-19T00:09:03;97950.00;;;10.26;48.83
46714;BME280;32445;51.376;10.874;2023-10-19T00:14:04;97947.34;;;10.27;48.77
46714;BME280;32445;51.376;10.874;2023-10-19T00:19:04;97937.91;;;10.26;48.91
46714;BME280;32445;51.376;10.874;2023-10-19T00:24:05;97939.63;;;10.26;49.10
46714;BME280;32445;51.376;10.874;2023-10-19T00:29:05;97936.84;;;10.30;49.07
46714;BME280;32445;51.376;10.874;2023-10-19T00:34:27;97922.09;;;10.31;49.04
46714;BME280;32445;51.376;10.874;2023-10-19T00:39:28;97911.72;;;10.31;48.89
46714;BME280;32445;51.376;10.874;2023-10-19T00:44:40;97913.41;;;10.32;49.22
46714;BME280;32445;51.376;10.874;2023-10-19T00:49:49;97900.31;;;10.35;49.14
46714;BME280;32445;51.376;10.874;2023-10-19T00:54:49;97883.84;;;10.36;48.96
46714;BME280;32445;51.376;10.874;2023-10-19T00:59:51;97878.59;;;10.37;49.08
46714;BME280;32445;51.376;10.874;2023-10-19T01:04:58;97861.25;;;10.38;49.35
46714;BME280;32445;51.376;10.874;2023-10-19T01:10:01;97852.47;;;10.41;49.37
46714;BME280;32445;51.376;10.874;2023-10-19T01:20:18;97843.25;;;10.35;49.64
46714;BME280;32445;51.376;10.874;2023-10-19T01:25:23;97831.81;;;10.39;49.50
46714;BME280;32445;51.376;10.874;2023-10-19T01:30:33;97828.38;;;10.38;49.41
46714;BME280;32445;51.376;10.874;2023-10-19T01:35:34;97815.41;;;10.38;49.59
46714;BME280;32445;51.376;10.874;2023-10-19T01:40:53;97806.63;;;10.41;49.76
46714;BME280;32445;51.376;10.874;2023-10-19T01:45:54;97788.56;;;10.39;49.66
46714;BME280;32445;51.376;10.874;2023-10-19T01:50:55;97772.06;;;10.41;49.73
46714;BME280;32445;51.376;10.874;2023-10-19T01:55:55;97765.91;;;10.43;49.73
46714;BME280;32445;51.376;10.874;2023-10-19T02:01:00;97764.13;;;10.44;49.88
46714;BME280;32445;51.376;10.874;2023-10-19T02:06:03;97757.44;;;10.39;49.90
46714;BME280;32445;51.376;10.874;2023-10-19T02:11:12;97740.94;;;10.41;49.82
46714;BME280;32445;51.376;10.874;2023-10-19T02:16:19;97734.00;;;10.41;49.92
46714;BME280;32445;51.376;10.874;2023-10-19T02:21:22;97728.97;;;10.38;49.91
46714;BME280;32445;51.376;10.874;2023-10-19T02:26:23;97723.78;;;10.38;50.16
46714;BME280;32445;51.376;10.874;2023-10-19T02:31:26;97716.84;;;10.38;50.13
46714;BME280;32445;51.376;10.874;2023-10-19T02:36:27;97703.88;;;10.38;50.13
46714;BME280;32445;51.376;10.874;2023-10-19T02:41:29;97703.78;;;10.40;50.02
46714;BME280;32445;51.376;10.874;2023-10-19T02:46:30;97707.50;;;10.36;50.21
46714;BME280;32445;51.376;10.874;2023-10-19T02:51:32;97699.44;;;10.41;50.26
46714;BME280;32445;51.376;10.874;2023-10-19T02:56:32;97682.91;;;10.43;50.25
46714;BME280;32445;51.376;10.874;2023-10-19T03:01:35;97669.06;;;10.43;50.29
46714;BME280;32445;51.376;10.874;2023-10-19T03:06:36;97660.28;;;10.45;50.31
46714;BME280;32445;51.376;10.874;2023-10-19T03:11:37;97654.19;;;10.46;50.48
46714;BME280;32445;51.376;10.874;2023-10-19T03:16:38;97646.31;;;10.48;50.44
46714;BME280;32445;51.376;10.874;2023-10-19T03:21:42;97643.63;;;10.49;50.56
46714;BME280;32445;51.376;10.874;2023-10-19T03:26:43;97636.69;;;10.50;50.41
46714;BME280;32445;51.376;10.874;2023-10-19T03:31:48;97634.00;;;10.51;50.54
46714;BME280;32445;51.376;10.874;2023-10-19T03:36:49;97627.06;;;10.52;50.42
46714;BME280;32445;51.376;10.874;2023-10-19T03:41:51;97626.13;;;10.53;50.45
46714;BME280;32445;51.376;10.874;2023-10-19T03:46:52;97614.00;;;10.53;50.44
46714;BME280;32445;51.376;10.874;2023-10-19T03:51:53;97614.84;;;10.54;50.55
46714;BME280;32445;51.376;10.874;2023-10-19T03:57:03;97610.41;;;10.56;50.64
46714;BME280;32445;51.376;10.874;2023-10-19T04:02:09;97598.28;;;10.56;50.66
46714;BME280;32445;51.376;10.874;2023-10-19T04:07:17;97591.31;;;10.57;50.59
46714;BME280;32445;51.376;10.874;2023-10-19T04:12:27;97583.53;;;10.57;50.77
46714;BME280;32445;51.376;10.874;2023-10-19T04:17:31;97580.84;;;10.59;50.88
46714;BME280;32445;51.376;10.874;2023-10-19T04:22:31;97579.94;;;10.60;50.95
46714;BME280;32445;51.376;10.874;2023-10-19T04:27:32;97574.75;;;10.60;50.76
46714;BME280;32445;51.376;10.874;2023-10-19T04:32:35;97572.91;;;10.62;50.90
46714;BME280;32445;51.376;10.874;2023-10-19T04:37:40;97568.53;;;10.62;50.95
46714;BME280;32445;51.376;10.874;2023-10-19T04:42:42;97573.66;;;10.64;50.88
46714;BME280;32445;51.376;10.874;2023-10-19T04:47:42;97575.41;;;10.63;51.16
46714;BME280;32445;51.376;10.874;2023-10-19T04:52:43;97571.16;;;10.62;51.17
46714;BME280;32445;51.376;10.874;2023-10-19T04:57:43;97568.47;;;10.64;51.21
46714;BME280;32445;51.376;10.874;2023-10-19T05:02:43;97565.78;;;10.65;51.06
46714;BME280;32445;51.376;10.874;2023-10-19T05:07:44;97578.66;;;10.67;51.12
46714;BME280;32445;51.376;10.874;2023-10-19T05:12:44;97560.50;;;10.67;51.22
46714;BME280;32445;51.376;10.874;2023-10-19T05:17:45;97560.41;;;10.68;50.79
46714;BME280;32445;51.376;10.874;2023-10-19T05:22:45;97570.69;;;10.70;51.08
46714;BME280;32445;51.376;10.874;2023-10-19T05:27:46;97575.97;;;10.68;51.35
46714;BME280;32445;51.376;10.874;2023-10-19T05:32:46;97574.97;;;10.71;51.20
46714;BME280;32445;51.376;10.874;2023-10-19T05:37:46;97580.97;;;10.71;51.20
46714;BME280;32445;51.376;10.874;2023-10-19T05:42:49;97590.34;;;10.74;51.25
46714;BME280;32445;51.376;10.874;2023-10-19T05:47:49;97586.84;;;10.75;51.17
46714;BME280;32445;51.376;10.874;2023-10-19T05:52:50;97582.47;;;10.76;51.20
46714;BME280;32445;51.376;10.874;2023-10-19T05:57:52;97585.16;;;10.74;51.41
46714;BME280;32445;51.376;10.874;2023-10-19T06:02:52;97590.25;;;10.76;51.42
46714;BME280;32445;51.376;10.874;2023-10-19T06:07:53;97581.75;;;10.73;51.38
46714;BME280;32445;51.376;10.874;2023-10-19T06:12:53;97588.94;;;10.68;51.81
46714;BME280;32445;51.376;10.874;2023-10-19T06:17:54;97586.16;;;10.71;51.51
46714;BME280;32445;51.376;10.874;2023-10-19T06:22:56;97556.63;;;10.74;51.69
46714;BME280;32445;51.376;10.874;2023-10-19T06:27:56;97579.16;;;10.73;51.64
46714;BME280;32445;51.376;10.874;2023-10-19T06:32:59;97563.50;;;10.75;51.79
46714;BME280;32445;51.376;10.874;2023-10-19T06:38:03;97570.34;;;10.76;51.61
46714;BME280;32445;51.376;10.874;2023-10-19T06:43:09;97574.06;;;10.72;51.92
46714;BME280;32445;51.376;10.874;2023-10-19T06:48:11;97578.22;;;10.75;51.71
46714;BME280;32445;51.376;10.874;2023-10-19T06:53:11;97573.78;;;10.77;51.65
46714;BME280;32445;51.376;10.874;2023-10-19T06:58:12;97582.19;;;10.80;51.87
46714;BME280;32445;51.376;10.874;2023-10-19T07:03:14;97580.66;;;10.78;51.91
46714;BME280;32445;51.376;10.874;2023-10-19T07:08:15;97579.47;;;10.83;51.95
46714;BME280;32445;51.376;10.874;2023-10-19T07:13:15;97567.22;;;10.85;51.75
46714;BME280;32445;51.376;10.874;2023-10-19T07:18:16;97569.72;;;10.87;51.89
46714;BME280;32445;51.376;10.874;2023-10-19T07:23:16;97572.97;;;10.90;51.85
46714;BME280;32445;51.376;10.874;2023-10-19T07:28:23;97565.94;;;10.93;51.77
46714;BME280;32445;51.376;10.874;2023-10-19T07:33:29;97565.75;;;10.96;51.67
46714;BME280;32445;51.376;10.874;2023-10-19T07:38:31;97560.38;;;10.99;51.78
46714;BME280;32445;51.376;10.874;2023-10-19T07:43:33;97561.75;;;11.04;51.60
46714;BME280;32445;51.376;10.874;2023-10-19T07:48:34;97555.47;;;11.08;51.88
46714;BME280;32445;51.376;10.874;2023-10-19T07:53:34;97556.31;;;11.09;51.86
46714;BME280;32445;51.376;10.874;2023-10-19T07:58:36;97545.94;;;11.09;52.01
46714;BME280;32445;51.376;10.874;2023-10-19T08:03:36;97539.53;;;11.15;51.91
46714;BME280;32445;51.376;10.874;2023-10-19T08:08:36;97548.72;;;11.20;51.77
46714;BME280;32445;51.376;10.874;2023-10-19T08:13:37;97544.91;;;11.26;51.90
46714;BME280;32445;51.376;10.874;2023-10-19T08:18:37;97555.97;;;11.30;51.72
46714;BME280;32445;51.376;10.874;2023-10-19T08:23:38;97562.72;;;11.32;52.00
46714;BME280;32445;51.376;10.874;2023-10-19T08:28:38;97565.03;;;11.37;51.79
46714;BME280;32445;51.376;10.874;2023-10-19T08:33:39;97558.75;;;11.41;51.70
46714;BME280;32445;51.376;10.874;2023-10-19T08:38:39;97559.38;;;11.45;51.82
46714;BME280;32445;51.376;10.874;2023-10-19T08:43:39;97552.06;;;11.51;51.93
46714;BME280;32445;51.376;10.874;2023-10-19T08:48:40;97556.88;;;11.57;51.80
46714;BME280;32445;51.376;10.874;2023-10-19T08:53:41;97563.44;;;11.63;52.00
46714;BME280;32445;51.376;10.874;2023-10-19T08:58:44;97553.91;;;11.64;52.03
46714;BME280;32445;51.376;10.874;2023-10-19T09:03:46;97546.53;;;11.70;51.95
46714;BME280;32445;51.376;10.874;2023-10-19T09:08:47;97549.81;;;11.74;52.14
46714;BME280;32445;51.376;10.874;2023-10-19T09:13:50;97551.59;;;11.73;52.21
46714;BME280;32445;51.376;10.874;2023-10-19T09:18:52;97550.34;;;11.79;52.16
46714;BME280;32445;51.376;10.874;2023-10-19T09:23:56;97538.34;;;11.91;52.13
46714;BME280;32445;51.376;10.874;2023-10-19T09:28:57;97551.00;;;11.97;52.33
46714;BME280;32445;51.376;10.874;2023-10-19T09:33:57;97546.97;;;12.06;52.36
46714;BME280;32445;51.376;10.874;2023-10-19T09:38:58;97540.44;;;12.13;52.12
46714;BME280;32445;51.376;10.874;2023-10-19T09:44:04;97539.78;;;12.24;52.25
46714;BME280;32445;51.376;10.874;2023-10-19T09:49:07;97535.84;;;12.31;52.20
46714;BME280;32445;51.376;10.874;2023-10-19T09:54:22;97520.56;;;12.39;52.14
46714;BME280;32445;51.376;10.874;2023-10-19T09:59:35;97524.50;;;12.45;52.32
46714;BME280;32445;51.376;10.874;2023-10-19T10:04:37;97531.09;;;12.51;52.14
46714;BME280;32445;51.376;10.874;2023-10-19T10:09:42;97531.72;;;12.54;52.48
46714;BME280;32445;51.376;10.874;2023-10-19T10:15:13;97530.38;;;12.61;52.42
46714;BME280;32445;51.376;10.874;2023-10-19T10:25:27;97509.25;;;12.66;52.66
46714;BME280;32445;51.376;10.874;2023-10-19T10:30:27;97499.88;;;12.76;52.48
46714;BME280;32445;51.376;10.874;2023-10-19T10:40:43;97474.94;;;12.87;52.50
46714;BME280;32445;51.376;10.874;2023-10-19T10:45:43;97473.47;;;12.95;52.58
46714;BME280;32445;51.376;10.874;2023-10-19T10:50:44;97474.28;;;12.96;52.48
46714;BME280;32445;51.376;10.874;2023-10-19T10:55:46;97484.50;;;12.99;52.79
46714;BME280;32445;51.376;10.874;2023-10-19T11:00:47;97474.72;;;13.03;52.86
46714;BME280;32445;51.376;10.874;2023-10-19T11:05:51;97485.22;;;13.14;52.60
46714;BME280;32445;51.376;10.874;2023-10-19T11:10:51;97481.38;;;13.20;52.68
46714;BME280;32445;51.376;10.874;2023-10-19T11:15:54;97479.59;;;13.20;52.68
46714;BME280;32445;51.376;10.874;2023-10-19T11:20:57;97481.03;;;13.24;52.70
46714;BME280;32445;51.376;10.874;2023-10-19T11:26:02;97481.25;;;13.21;53.01
46714;BME280;32445;51.376;10.874;2023-10-19T11:31:18;97478.66;;;13.21;53.17
46714;BME280;32445;51.376;10.874;2023-10-19T11:36:20;97468.13;;;13.23;53.02
46714;BME280;32445;51.376;10.874;2023-10-19T11:41:21;97459.88;;;13.29;52.90
46714;BME280;32445;51.376;10.874;2023-10-19T11:46:21;97449.66;;;13.26;53.14
46714;BME280;32445;51.376;10.874;2023-10-19T11:51:23;97452.28;;;13.26;53.14
46714;BME280;32445;51.376;10.874;2023-10-19T11:56:23;97452.16;;;13.27;53.32
46714;BME280;32445;51.376;10.874;2023-10-19T12:01:25;97451.72;;;13.33;53.41
46714;BME280;32445;51.376;10.874;2023-10-19T12:06:26;97450.91;;;13.46;53.22
46714;BME280;32445;51.376;10.874;2023-10-19T12:11:27;97439.69;;;13.57;53.28
46714;BME280;32445;51.376;10.874;2023-10-19T12:16:28;97444.59;;;13.61;53.22
46714;BME280;32445;51.376;10.874;2023-10-19T12:21:28;97436.44;;;13.66;53.27
46714;BME280;32445;51.376;10.874;2023-10-19T12:26:30;97441.22;;;13.72;53.11
46714;BME280;32445;51.376;10.874;2023-10-19T12:31:31;97438.78;;;13.82;53.20
46714;BME280;32445;51.376;10.874;2023-10-19T12:36:31;97426.59;;;13.94;53.05
46714;BME280;32445;51.376;10.874;2023-10-19T12:41:32;97428.06;;;13.98;53.09
46714;BME280;32445;51.376;10.874;2023-10-19T12:46:32;97432.00;;;14.04;53.12
46714;BME280;32445;51.376;10.874;2023-10-19T12:51:36;97436.66;;;14.11;52.97
46714;BME280;32445;51.376;10.874;2023-10-19T12:56:38;97430.03;;;14.18;52.90
46714;BME280;32445;51.376;10.874;2023-10-19T13:01:39;97422.69;;;14.24;52.96
46714;BME280;32445;51.376;10.874;2023-10-19T13:06:40;97413.56;;;14.29;52.97
46714;BME280;32445;51.376;10.874;2023-10-19T13:11:41;97409.66;;;14.35;53.10
46714;BME280;32445;51.376;10.874;2023-10-19T13:16:44;97408.50;;;14.39;53.02
46714;BME280;32445;51.376;10.874;2023-10-19T13:21:45;97407.09;;;14.46;53.09
46714;BME280;32445;51.376;10.874;2023-10-19T13:26:45;97393.56;;;14.52;53.00
46714;BME280;32445;51.376;10.874;2023-10-19T13:31:47;97390.06;;;14.65;53.06
46714;BME280;32445;51.376;10.874;2023-10-19T13:36:50;97385.53;;;14.78;52.85
46714;BME280;32445;51.376;10.874;2023-10-19T13:41:51;97384.47;;;14.92;52.73
46714;BME280;32445;51.376;10.874;2023-10-19T13:46:54;97382.34;;;14.97;52.83
46714;BME280;32445;51.376;10.874;2023-10-19T13:51:54;97375.56;;;15.06;52.95
46714;BME280;32445;51.376;10.874;2023-10-19T13:56:55;97366.19;;;15.15;52.69
46714;BME280;32445;51.376;10.874;2023-10-19T14:01:55;97365.56;;;15.22;52.52
46714;BME280;32445;51.376;10.874;2023-10-19T14:06:55;97362.00;;;15.23;52.89
46714;BME280;32445;51.376;10.874;2023-10-19T14:11:56;97359.94;;;15.27;53.02
46714;BME280;32445;51.376;10.874;2023-10-19T14:16:57;97358.75;;;15.31;52.94
46714;BME280;32445;51.376;10.874;2023-10-19T14:21:58;97357.81;;;15.32;53.11
46714;BME280;32445;51.376;10.874;2023-10-19T14:26:58;97356.88;;;15.33;53.08
46714;BME280;32445;51.376;10.874;2023-10-19T14:32:00;97356.16;;;15.31;53.24
46714;BME280;32445;51.376;10.874;2023-10-19T14:37:00;97351.28;;;15.38;53.20
46714;BME280;32445;51.376;10.874;2023-10-19T14:42:01;97344.97;;;15.40;53.20
46714;BME280;32445;51.376;10.874;2023-10-19T14:47:01;97331.19;;;15.38;53.25
46714;BME280;32445;51.376;10.874;2023-10-19T14:52:04;97336.53;;;15.37;53.19
46714;BME280;32445;51.376;10.874;2023-10-19T14:57:07;97342.72;;;15.36;53.42
46714;BME280;32445;51.376;10.874;2023-10-19T15:02:08;97338.31;;;15.36;53.21
46714;BME280;32445;51.376;10.874;2023-10-19T15:07:12;97336.53;;;15.37;53.30
46714;BME280;32445;51.376;10.874;2023-10-19T15:12:12;97344.38;;;15.37;53.04
46714;BME280;32445;51.376;10.874;2023-10-19T15:17:13;97340.13;;;15.36;53.17
46714;BME280;32445;51.376;10.874;2023-10-19T15:22:13;97331.56;;;15.34;53.23
46714;BME280;32445;51.376;10.874;2023-10-19T15:27:16;97341.19;;;15.33;53.12
46714;BME280;32445;51.376;10.874;2023-10-19T15:32:18;97337.97;;;15.30;53.27
46714;BME280;32445;51.376;10.874;2023-10-19T15:37:20;97335.63;;;15.27;53.06
46714;BME280;32445;51.376;10.874;2023-10-19T15:42:23;97333.25;;;15.23;53.17
46714;BME280;32445;51.376;10.874;2023-10-19T15:47:24;97329.09;;;15.21;52.97
46714;BME280;32445;51.376;10.874;2023-10-19T15:52:26;97321.50;;;15.18;53.34
46714;BME280;32445;51.376;10.874;2023-10-19T15:57:31;97317.47;;;15.14;53.23
46714;BME280;32445;51.376;10.874;2023-10-19T16:02:33;97322.81;;;15.12;53.06
46714;BME280;32445;51.376;10.874;2023-10-19T16:07:34;97310.13;;;15.08;53.06
46714;BME280;32445;51.376;10.874;2023-10-19T16:12:38;97304.31;;;15.04;53.16
46714;BME280;32445;51.376;10.874;2023-10-19T16:17:39;97310.59;;;15.01;53.22
46714;BME280;32445;51.376;10.874;2023-10-19T16:22:41;97296.97;;;14.98;53.04
46714;BME280;32445;51.376;10.874;2023-10-19T16:27:41;97286.88;;;14.93;53.19
46714;BME280;32445;51.376;10.874;2023-10-19T16:32:42;97300.19;;;14.90;53.11
46714;BME280;32445;51.376;10.874;2023-10-19T16:37:42;97299.59;;;14.86;53.05
46714;BME280;32445;51.376;10.874;2023-10-19T16:42:43;97305.06;;;14.83;53.03
46714;BME280;32445;51.376;10.874;2023-10-19T16:47:43;97298.41;;;14.79;53.16
46714;BME280;32445;51.376;10.874;2023-10-19T16:52:45;97305.56;;;14.77;53.15
46714;BME280;32445;51.376;10.874;2023-10-19T16:57:45;97299.72;;;14.74;53.03
46714;BME280;32445;51.376;10.874;2023-10-19T17:02:46;97292.25;;;14.69;53.04
46714;BME280;32445;51.376;10.874;2023-10-19T17:07:46;97296.06;;;14.65;53.16
46714;BME280;32445;51.376;10.874;2023-10-19T17:12:46;97285.84;;;14.62;53.06
46714;BME280;32445;51.376;10.874;2023-10-19T17:17:47;97285.22;;;14.58;53.21
46714;BME280;32445;51.376;10.874;2023-10-19T17:22:48;97279.31;;;14.56;53.11
46714;BME280;32445;51.376;10.874;2023-10-19T17:27:48;97271.59;;;14.54;53.53
46714;BME280;32445;51.376;10.874;2023-10-19T17:32:48;97263.03;;;14.52;53.20
46714;BME280;32445;51.376;10.874;2023-10-19T17:37:49;97258.91;;;14.50;53.15
46714;BME280;32445;51.376;10.874;2023-10-19T17:42:49;97253.78;;;14.48;53.24
46714;BME280;32445;51.376;10.874;2023-10-19T17:47:50;97229.59;;;14.46;53.20
46714;BME280;32445;51.376;10.874;2023-10-19T17:52:51;97237.66;;;14.43;53.27
46714;BME280;32445;51.376;10.874;2023-10-19T17:57:51;97225.56;;;14.42;53.14
46714;BME280;32445;51.376;10.874;2023-10-19T18:02:53;97222.25;;;14.40;53.24
46714;BME280;32445;51.376;10.874;2023-10-19T18:07:53;97224.97;;;14.39;53.25
46714;BME280;32445;51.376;10.874;2023-10-19T18:12:55;97228.53;;;14.38;53.21
46714;BME280;32445;51.376;10.874;2023-10-19T18:17:56;97236.38;;;14.38;53.16
46714;BME280;32445;51.376;10.874;2023-10-19T18:22:56;97236.59;;;14.34;53.34
46714;BME280;32445;51.376;10.874;2023-10-19T18:27:57;97239.22;;;14.34;53.21
46714;BME280;32445;51.376;10.874;2023-10-19T18:32:57;97237.56;;;14.33;53.24
46714;BME280;32445;51.376;10.874;2023-10-19T18:37:58;97235.06;;;14.32;53.32
46714;BME280;32445;51.376;10.874;2023-10-19T18:42:58;97232.56;;;14.30;53.21
46714;BME280;32445;51.376;10.874;2023-10-19T18:47:59;97221.28;;;14.30;53.39
46714;BME280;32445;51.376;10.874;2023-10-19T18:52:59;97216.19;;;14.28;53.10
46714;BME280;32445;51.376;10.874;2023-10-19T18:57:59;97216.19;;;14.28;53.31
46714;BME280;32445;51.376;10.874;2023-10-19T19:03:02;97207.66;;;14.26;53.27
46714;BME280;32445;51.376;10.874;2023-10-19T19:08:03;97215.50;;;14.26;53.40
46714;BME280;32445;51.376;10.874;2023-10-19T19:13:03;97209.44;;;14.26;53.35
46714;BME280;32445;51.376;10.874;2023-10-19T19:18:05;97209.44;;;14.26;53.27
46714;BME280;32445;51.376;10.874;2023-10-19T19:23:06;97222.63;;;14.24;53.33
46714;BME280;32445;51.376;10.874;2023-10-19T19:28:08;97224.38;;;14.24;53.29
46714;BME280;32445;51.376;10.874;2023-10-19T19:33:08;97208.72;;;14.24;53.41
46714;BME280;32445;51.376;10.874;2023-10-19T19:38:09;97205.28;;;14.23;53.41
46714;BME280;32445;51.376;10.874;2023-10-19T19:43:09;97218.47;;;14.22;53.31
46714;BME280;32445;51.376;10.874;2023-10-19T19:48:11;97215.84;;;14.22;53.42
46714;BME280;32445;51.376;10.874;2023-10-19T19:53:11;97212.41;;;14.21;53.55
46714;BME280;32445;51.376;10.874;2023-10-19T19:58:14;97224.63;;;14.21;53.51
46714;BME280;32445;51.376;10.874;2023-10-19T20:03:15;97215.00;;;14.21;53.49
46714;BME280;32445;51.376;10.874;2023-10-19T20:08:15;97184.66;;;14.20;53.35
46714;BME280;32445;51.376;10.874;2023-10-19T20:13:16;97183.81;;;14.19;53.46
46714;BME280;32445;51.376;10.874;2023-10-19T20:18:16;97186.44;;;14.19;53.49
46714;BME280;32445;51.376;10.874;2023-10-19T20:23:16;97176.84;;;14.20;53.52
46714;BME280;32445;51.376;10.874;2023-10-19T20:28:20;97185.59;;;14.19;53.54
46714;BME280;32445;51.376;10.874;2023-10-19T20:33:20;97183.00;;;14.19;53.56
46714;BME280;32445;51.376;10.874;2023-10-19T20:38:21;97200.44;;;14.18;53.56
46714;BME280;32445;51.376;10.874;2023-10-19T20:43:21;97199.59;;;14.18;53.58
46714;BME280;32445;51.376;10.874;2023-10-19T20:48:21;97184.78;;;14.18;53.64
46714;BME280;32445;51.376;10.874;2023-10-19T20:53:22;97192.63;;;14.18;53.87
46714;BME280;32445;51.376;10.874;2023-10-19T20:58:22;97195.22;;;14.18;53.77
46714;BME280;32445;51.376;10.874;2023-10-19T21:03:22;97183.00;;;14.19;53.85
46714;BME280;32445;51.376;10.874;2023-10-19T21:08:23;97172.56;;;14.19;53.82
46714;BME280;32445;51.376;10.874;2023-10-19T21:13:23;97173.50;;;14.18;53.96
46714;BME280;32445;51.376;10.874;2023-10-19T21:18:24;97166.66;;;14.17;53.93
46714;BME280;32445;51.376;10.874;2023-10-19T21:23:24;97167.47;;;14.17;53.96
46714;BME280;32445;51.376;10.874;2023-10-19T21:28:25;97158.91;;;14.15;54.15
46714;BME280;32445;51.376;10.874;2023-10-19T21:33:25;97160.72;;;14.15;54.21
46714;BME280;32445;51.376;10.874;2023-10-19T21:38:26;97140.56;;;14.17;53.90
46714;BME280;32445;51.376;10.874;2023-10-19T21:43:26;97134.38;;;14.18;54.15
46714;BME280;32445;51.376;10.874;2023-10-19T21:48:27;97120.50;;;14.17;54.00
46714;BME280;32445;51.376;10.874;2023-10-19T21:53:27;97117.06;;;14.17;54.32
46714;BME280;32445;51.376;10.874;2023-10-19T21:58:28;97114.47;;;14.17;54.25
46714;BME280;32445;51.376;10.874;2023-10-19T22:03:28;97103.31;;;14.15;54.31
46714;BME280;32445;51.376;10.874;2023-10-19T22:08:29;97089.19;;;14.17;54.23
46714;BME280;32445;51.376;10.874;2023-10-19T22:13:29;97090.88;;;14.18;54.26
46714;BME280;32445;51.376;10.874;2023-10-19T22:18:31;97086.25;;;14.11;54.50
46714;BME280;32445;51.376;10.874;2023-10-19T22:23:32;97088.84;;;14.11;54.49
46714;BME280;32445;51.376;10.874;2023-10-19T22:28:32;97089.78;;;14.10;54.57
46714;BME280;32445;51.376;10.874;2023-10-19T22:33:33;97104.88;;;14.06;54.61
46714;BME280;32445;51.376;10.874;2023-10-19T22:38:33;97089.09;;;14.08;54.71
46714;BME280;32445;51.376;10.874;2023-10-19T22:43:36;97077.59;;;14.10;54.56
46714;BME280;32445;51.376;10.874;2023-10-19T22:48:37;97080.31;;;14.09;54.56
46714;BME280;32445;51.376;10.874;2023-10-19T22:53:37;97062.06;;;14.09;54.48
46714;BME280;32445;51.376;10.874;2023-10-19T22:58:41;97059.47;;;14.09;54.73
46714;BME280;32445;51.376;10.874;2023-10-19T23:03:42;97053.53;;;14.07;54.57
46714;BME280;32445;51.376;10.874;2023-10-19T23:08:44;97042.28;;;14.06;54.67
46714;BME280;32445;51.376;10.874;2023-10-19T23:13:44;97036.34;;;14.04;54.62
46714;BME280;32445;51.376;10.874;2023-10-19T23:18:48;97043.59;;;14.00;54.61
46714;BME280;32445;51.376;10.874;2023-10-19T23:23:49;97050.59;;;14.00;54.64
46714;BME280;32445;51.376;10.874;2023-10-19T23:28:50;97044.78;;;13.96;54.80
46714;BME280;32445;51.376;10.874;2023-10-19T23:33:53;97036.00;;;13.97;54.80
46714;BME280;32445;51.376;10.874;2023-10-19T23:38:54;97022.03;;;13.98;54.70
46714;BME280;32445;51.376;10.874;2023-10-19T23:43:54;97033.53;;;13.96;55.04
46714;BME280;32445;51.376;10.874;2023-10-19T23:48:55;97030.31;;;13.92;54.82
46714;BME280;32445;51.376;10.874;2023-10-19T23:53:55;97016.34;;;13.93;54.97
46714;BME280;32445;51.376;10.874;2023-10-19T23:58:55;97008.50;;;13.93;54.78
